Time;durP1;ratioP1;P1;durP2;ratioP2;P2;SDS_P1;SDS_P2;PMS_P1;PMS_P2;Temp;Humidity;BMP_temperature;BMP_pressure;BME280_temperature;BME280_humidity;BME280_pressure;Samples;Min_cycle;Max_cycle;Signal;HPM_P1;HPM_P2
2021/03/18 00:00:57;;;;;;;7.38;3.13;;;3.50;69.70;;;;;;4992424;28;20049;-65
2021/03/18 00:03:34;;;;;;;3.55;2.90;;;3.50;69.80;;;;;;4992287;28;20049;-66
2021/03/18 00:06:00;;;;;;;5.78;3.22;;;3.50;69.90;;;;;;4993009;28;20037;-66
2021/03/18 00:08:27;;;;;;;5.35;3.13;;;3.50;69.70;;;;;;4992200;28;20512;-65
2021/03/18 00:10:53;;;;;;;6.57;3.00;;;3.50;69.70;;;;;;4992690;28;20026;-64
2021/03/18 00:13:21;;;;;;;6.85;3.30;;;3.50;69.80;;;;;;4992840;28;20029;-65
2021/03/18 00:15:47;;;;;;;5.03;3.08;;;3.50;69.70;;;;;;4990847;28;20425;-65
2021/03/18 00:18:15;;;;;;;5.35;3.30;;;3.40;69.90;;;;;;4985862;28;20462;-65
2021/03/18 00:20:41;;;;;;;5.57;3.63;;;3.40;69.80;;;;;;4992593;28;20117;-65
2021/03/18 00:23:06;;;;;;;7.60;3.50;;;3.40;70.10;;;;;;4992582;28;20116;-65
2021/03/18 00:25:33;;;;;;;7.93;3.88;;;3.40;70.10;;;;;;4994627;28;20377;-65
2021/03/18 00:27:58;;;;;;;6.55;3.63;;;3.40;70.10;;;;;;4996391;28;20112;-65
2021/03/18 00:30:25;;;;;;;4.40;3.35;;;3.40;70.10;;;;;;4996175;28;20104;-64
2021/03/18 00:32:52;;;;;;;4.72;3.60;;;3.40;70.20;;;;;;4995992;28;20387;-63
2021/03/18 00:35:19;;;;;;;6.75;3.80;;;3.40;70.30;;;;;;4995554;28;20030;-64
2021/03/18 00:37:47;;;;;;;6.55;3.13;;;3.40;70.30;;;;;;4996418;28;20033;-64
2021/03/18 00:40:28;;;;;;;5.65;3.17;;;3.40;70.40;;;;;;5013602;28;20033;-64
2021/03/18 00:43:06;;;;;;;7.32;3.63;;;3.40;70.40;;;;;;4996188;28;20029;-66
2021/03/18 00:45:35;;;;;;;7.32;3.30;;;3.50;70.40;;;;;;4995638;28;20030;-64
2021/03/18 00:48:02;;;;;;;7.55;3.42;;;3.50;70.30;;;;;;4995919;28;20486;-65
2021/03/18 00:50:39;;;;;;;4.68;3.38;;;3.50;70.30;;;;;;4995681;28;20436;-64
2021/03/18 00:53:07;;;;;;;5.97;3.15;;;3.50;70.30;;;;;;4996026;28;20108;-64
2021/03/18 00:55:33;;;;;;;5.30;3.20;;;3.50;70.30;;;;;;4995698;28;20199;-65
2021/03/18 00:57:58;;;;;;;8.02;3.30;;;3.40;70.40;;;;;;4995810;28;20113;-64
2021/03/18 01:00:32;;;;;;;6.45;3.30;;;3.40;70.60;;;;;;4995076;28;20481;-65
2021/03/18 01:02:58;;;;;;;3.58;2.92;;;3.40;70.60;;;;;;4995703;28;20173;-65
2021/03/18 01:05:41;;;;;;;6.97;3.13;;;3.40;70.60;;;;;;4995320;28;20545;-65
2021/03/18 01:08:08;;;;;;;7.85;3.88;;;3.50;70.60;;;;;;4995425;28;20034;-65
2021/03/18 01:10:50;;;;;;;15.70;5.03;;;3.50;70.40;;;;;;4995502;28;20041;-65
2021/03/18 01:13:21;;;;;;;22.85;7.07;;;3.40;70.40;;;;;;4995037;28;20120;-65
2021/03/18 01:15:49;;;;;;;8.27;3.85;;;3.40;70.40;;;;;;5001864;28;20432;-64
2021/03/18 01:18:17;;;;;;;8.38;4.25;;;3.30;70.70;;;;;;4994664;28;20065;-64
2021/03/18 01:20:44;;;;;;;5.65;3.72;;;3.30;70.60;;;;;;4991760;28;20030;-65
2021/03/18 01:23:09;;;;;;;11.48;4.93;;;3.30;70.90;;;;;;4995165;28;20034;-65
2021/03/18 01:25:35;;;;;;;11.73;4.72;;;3.30;70.90;;;;;;4995146;28;20370;-65
2021/03/18 01:28:02;;;;;;;6.25;4.05;;;3.40;71.00;;;;;;4993536;28;20105;-65
2021/03/18 01:30:28;;;;;;;5.20;3.47;;;3.40;71.00;;;;;;4998588;28;20021;-65
2021/03/18 01:32:53;;;;;;;10.00;4.18;;;3.40;70.90;;;;;;4995028;28;20025;-65
2021/03/18 01:35:21;;;;;;;6.15;3.78;;;3.50;70.90;;;;;;4993926;28;20032;-65
2021/03/18 01:37:48;;;;;;;5.13;3.20;;;3.40;70.80;;;;;;4994907;28;20041;-65
2021/03/18 01:40:17;;;;;;;6.55;3.50;;;3.50;71.00;;;;;;4994932;28;20485;-64
2021/03/18 01:42:43;;;;;;;5.40;3.33;;;3.40;70.90;;;;;;5007945;28;20112;-65
2021/03/18 01:45:11;;;;;;;7.00;3.45;;;3.50;71.00;;;;;;4994611;28;20101;-65
2021/03/18 01:47:40;;;;;;;4.60;3.63;;;3.50;71.00;;;;;;4989260;28;20369;-63
2021/03/18 01:50:07;;;;;;;8.80;3.45;;;3.50;71.00;;;;;;4994739;28;20029;-65
2021/03/18 01:52:33;;;;;;;7.78;4.38;;;3.50;71.00;;;;;;4994457;28;20030;-64
2021/03/18 01:54:59;;;;;;;4.90;3.90;;;3.50;71.00;;;;;;4994622;28;20110;-65
2021/03/18 01:57:25;;;;;;;4.85;3.60;;;3.50;71.00;;;;;;4994677;28;20181;-65
2021/03/18 01:59:52;;;;;;;6.85;4.10;;;3.50;71.00;;;;;;4994644;28;20088;-65
2021/03/18 02:02:18;;;;;;;7.25;3.38;;;3.50;71.10;;;;;;4993915;28;20390;-64
2021/03/18 02:04:44;;;;;;;4.75;3.47;;;3.50;71.00;;;;;;4993980;28;20030;-64
2021/03/18 02:07:10;;;;;;;5.88;3.83;;;3.50;70.90;;;;;;4994764;28;20049;-64
2021/03/18 02:09:36;;;;;;;5.53;3.75;;;3.50;70.90;;;;;;4994550;28;20490;-65
2021/03/18 02:12:02;;;;;;;6.78;3.70;;;3.50;70.90;;;;;;4994468;28;20125;-64
2021/03/18 02:14:27;;;;;;;6.07;3.92;;;3.40;71.00;;;;;;4994360;28;20109;-65
2021/03/18 02:16:58;;;;;;;7.40;3.75;;;3.40;70.90;;;;;;4993977;28;20038;-65
2021/03/18 02:19:57;;;;;;;6.82;3.88;;;3.40;71.00;;;;;;4993802;28;20026;-65
2021/03/18 02:22:41;;;;;;;6.25;3.63;;;3.30;71.00;;;;;;4992215;28;20026;-65
2021/03/18 02:25:28;;;;;;;7.00;3.80;;;3.30;71.00;;;;;;4994300;28;20049;-65
2021/03/18 02:28:24;;;;;;;5.10;3.63;;;3.30;71.10;;;;;;4981934;28;20029;-65
2021/03/18 02:30:58;;;;;;;7.68;3.72;;;3.30;71.20;;;;;;4994131;28;20108;-65
2021/03/18 02:33:36;;;;;;;7.20;3.78;;;3.20;71.10;;;;;;4993852;28;20041;-65
2021/03/18 02:36:04;;;;;;;6.50;3.90;;;3.20;71.20;;;;;;4993969;28;20037;-66
2021/03/18 02:38:39;;;;;;;5.53;3.40;;;3.20;71.30;;;;;;4994073;28;20091;-65
2021/03/18 02:41:20;;;;;;;8.15;3.83;;;3.20;71.50;;;;;;4993993;28;20391;-65
2021/03/18 02:43:50;;;;;;;7.03;4.10;;;3.30;71.60;;;;;;4986705;28;21681;-65
2021/03/18 02:46:18;;;;;;;6.85;3.83;;;3.30;71.40;;;;;;4993596;28;20038;-65
2021/03/18 02:48:46;;;;;;;4.63;3.65;;;3.20;71.40;;;;;;4992871;28;20112;-66
2021/03/18 02:51:15;;;;;;;8.20;3.65;;;3.20;71.40;;;;;;4993679;28;20032;-63
2021/03/18 02:53:43;;;;;;;8.55;3.95;;;3.20;71.50;;;;;;4993743;28;20025;-66
2021/03/18 02:56:10;;;;;;;7.25;3.83;;;3.20;71.50;;;;;;4993804;28;20033;-63
2021/03/18 02:58:39;;;;;;;7.65;3.63;;;3.20;71.50;;;;;;4993774;28;20034;-66
2021/03/18 03:01:06;;;;;;;8.25;4.10;;;3.20;71.50;;;;;;4993115;28;20034;-65
2021/03/18 03:03:34;;;;;;;8.02;3.90;;;3.20;71.50;;;;;;4994023;28;20026;-65
2021/03/18 03:06:01;;;;;;;6.05;4.10;;;3.20;71.60;;;;;;4993343;28;20022;-65
2021/03/18 03:08:28;;;;;;;8.82;4.75;;;3.20;71.50;;;;;;4993568;28;20021;-65
2021/03/18 03:10:57;;;;;;;6.05;3.65;;;3.20;71.60;;;;;;4993420;28;20026;-66
2021/03/18 03:13:27;;;;;;;7.40;3.83;;;3.10;71.50;;;;;;4993433;28;20053;-66
2021/03/18 03:15:54;;;;;;;6.10;4.07;;;3.10;71.80;;;;;;4992999;28;20091;-64
2021/03/18 03:18:20;;;;;;;6.55;3.58;;;3.10;71.80;;;;;;4992955;28;20060;-65
2021/03/18 03:20:46;;;;;;;7.60;4.55;;;3.10;71.70;;;;;;4993029;28;20026;-65
2021/03/18 03:23:12;;;;;;;4.97;3.42;;;3.10;71.70;;;;;;4986612;28;20018;-65
2021/03/18 03:25:39;;;;;;;7.95;3.85;;;3.10;71.60;;;;;;4976972;28;20026;-66
2021/03/18 03:28:08;;;;;;;8.18;4.47;;;3.00;71.60;;;;;;4982380;28;20030;-65
2021/03/18 03:30:34;;;;;;;6.32;3.92;;;2.90;71.80;;;;;;4993269;28;20025;-66
2021/03/18 03:32:59;;;;;;;6.20;4.30;;;2.90;72.00;;;;;;4993156;28;20398;-65
2021/03/18 03:35:26;;;;;;;6.53;3.75;;;2.90;72.20;;;;;;4993080;28;20037;-65
2021/03/18 03:37:52;;;;;;;6.47;3.75;;;2.90;72.30;;;;;;4993337;28;20513;-65
2021/03/18 03:40:18;;;;;;;7.88;3.88;;;2.90;72.20;;;;;;4992986;28;20053;-65
2021/03/18 03:42:45;;;;;;;9.32;4.47;;;2.90;72.10;;;;;;4993341;28;20104;-66
2021/03/18 03:45:14;;;;;;;6.68;3.72;;;2.90;72.10;;;;;;4992809;28;20030;-65
2021/03/18 03:47:41;;;;;;;5.80;4.00;;;3.00;72.20;;;;;;4992627;28;20026;-65
2021/03/18 03:50:16;;;;;;;9.13;4.28;;;3.00;72.20;;;;;;4993191;28;20045;-65
2021/03/18 03:52:51;;;;;;;6.65;4.15;;;3.00;72.30;;;;;;4979396;28;20025;-65
2021/03/18 03:55:31;;;;;;;7.60;3.80;;;2.90;72.30;;;;;;5010560;28;20541;-65
2021/03/18 03:58:14;;;;;;;5.75;3.42;;;3.00;72.20;;;;;;4990068;28;20389;-65
2021/03/18 04:00:41;;;;;;;6.60;3.85;;;2.90;72.30;;;;;;4979991;28;20691;-65
2021/03/18 04:03:08;;;;;;;5.72;3.90;;;3.00;72.20;;;;;;4997169;28;20034;-65
2021/03/18 04:05:37;;;;;;;9.57;4.07;;;3.00;72.20;;;;;;4996241;28;20551;-66
2021/03/18 04:08:09;;;;;;;6.47;4.00;;;3.00;72.40;;;;;;4996821;28;20038;-66
2021/03/18 04:10:35;;;;;;;8.27;3.83;;;3.00;72.40;;;;;;4996830;28;20057;-66
2021/03/18 04:13:02;;;;;;;6.10;3.60;;;3.00;72.40;;;;;;5014598;28;20065;-65
2021/03/18 04:15:31;;;;;;;6.28;3.47;;;3.00;72.40;;;;;;4996091;28;20033;-65
2021/03/18 04:18:00;;;;;;;7.35;3.95;;;3.10;72.40;;;;;;4995994;28;20461;-66
2021/03/18 04:20:27;;;;;;;8.50;4.20;;;3.10;72.30;;;;;;4996525;28;20237;-65
2021/03/18 04:22:55;;;;;;;6.50;3.63;;;3.00;72.30;;;;;;4996307;28;20025;-66
2021/03/18 04:25:23;;;;;;;6.00;3.95;;;3.00;72.30;;;;;;4996494;28;20417;-65
2021/03/18 04:27:51;;;;;;;7.05;3.75;;;3.00;72.30;;;;;;4996418;28;20135;-65
2021/03/18 04:30:18;;;;;;;6.15;3.65;;;3.00;72.30;;;;;;4996396;28;20482;-65
2021/03/18 04:32:46;;;;;;;6.97;3.92;;;3.00;72.30;;;;;;4996139;28;20504;-65
2021/03/18 04:35:13;;;;;;;5.05;3.60;;;3.00;72.50;;;;;;4995861;28;20026;-65
2021/03/18 04:37:39;;;;;;;7.63;4.38;;;3.10;72.70;;;;;;4996055;28;20030;-64
2021/03/18 04:40:07;;;;;;;6.45;3.80;;;3.10;72.40;;;;;;4995932;28;20026;-64
2021/03/18 04:42:34;;;;;;;7.82;3.78;;;3.10;72.30;;;;;;4995140;28;20057;-64
2021/03/18 04:45:01;;;;;;;7.47;3.88;;;3.10;72.20;;;;;;4994995;28;20037;-64
2021/03/18 04:47:27;;;;;;;9.43;4.18;;;3.20;72.30;;;;;;4995507;28;20037;-63
2021/03/18 04:49:53;;;;;;;11.18;3.90;;;3.20;72.30;;;;;;4995853;28;20026;-64
2021/03/18 04:52:20;;;;;;;8.25;4.20;;;3.20;72.30;;;;;;4995721;28;20030;-64
2021/03/18 04:54:46;;;;;;;7.28;3.67;;;3.20;72.10;;;;;;4995608;28;20153;-63
2021/03/18 04:57:16;;;;;;;7.20;3.65;;;3.20;72.10;;;;;;4995781;28;20045;-64
2021/03/18 04:59:43;;;;;;;4.78;3.83;;;3.20;72.20;;;;;;4995733;28;20042;-64
2021/03/18 05:02:10;;;;;;;6.43;3.30;;;3.10;72.00;;;;;;4995765;28;20029;-64
2021/03/18 05:04:36;;;;;;;6.65;3.75;;;3.10;72.30;;;;;;4995026;28;20074;-64
2021/03/18 05:07:02;;;;;;;6.97;3.80;;;3.00;72.40;;;;;;4996002;28;20026;-65
2021/03/18 05:09:29;;;;;;;7.63;3.65;;;3.00;72.40;;;;;;4995531;28;20092;-64
2021/03/18 05:11:56;;;;;;;6.90;4.03;;;3.00;72.40;;;;;;4995158;28;20029;-64
2021/03/18 05:14:23;;;;;;;8.73;4.18;;;2.90;72.40;;;;;;4995010;28;20030;-64
2021/03/18 05:16:53;;;;;;;8.10;4.10;;;2.90;72.50;;;;;;4995448;28;20076;-66
2021/03/18 05:19:19;;;;;;;5.13;4.00;;;2.90;72.80;;;;;;4995483;28;20021;-63
2021/03/18 05:21:47;;;;;;;7.85;4.18;;;2.90;72.80;;;;;;4990046;28;20077;-66
2021/03/18 05:24:13;;;;;;;8.10;4.55;;;2.90;72.80;;;;;;4994624;28;20061;-65
2021/03/18 05:26:42;;;;;;;6.65;3.90;;;2.90;72.70;;;;;;4995299;28;20064;-66
2021/03/18 05:29:09;;;;;;;7.97;4.30;;;2.90;72.80;;;;;;4995437;28;20047;-66
2021/03/18 05:31:35;;;;;;;9.00;4.18;;;2.90;72.80;;;;;;4995075;28;20037;-66
2021/03/18 05:34:01;;;;;;;4.43;3.67;;;2.90;72.80;;;;;;4994156;28;20080;-66
2021/03/18 05:36:27;;;;;;;6.53;4.10;;;2.90;72.80;;;;;;5012512;28;20402;-64
2021/03/18 05:38:53;;;;;;;8.00;4.10;;;2.90;72.80;;;;;;4995056;28;20022;-66
2021/03/18 05:41:19;;;;;;;5.15;3.75;;;2.90;72.80;;;;;;4995081;28;20038;-66
2021/03/18 05:43:46;;;;;;;10.10;4.40;;;3.00;72.80;;;;;;4994921;28;20022;-66
2021/03/18 05:46:13;;;;;;;8.07;5.32;;;3.10;72.80;;;;;;4994539;28;20066;-65
2021/03/18 05:48:40;;;;;;;10.63;5.20;;;3.10;72.70;;;;;;4994788;28;20033;-66
2021/03/18 05:51:09;;;;;;;8.30;4.72;;;3.10;72.60;;;;;;4994578;28;20057;-65
2021/03/18 05:53:37;;;;;;;11.85;5.57;;;3.20;72.50;;;;;;5018356;23;20406;-88
2021/03/18 05:56:04;;;;;;;11.52;5.07;;;3.10;72.50;;;;;;5008161;28;20037;-88
2021/03/18 05:58:32;;;;;;;7.53;4.22;;;3.10;72.50;;;;;;5007878;28;20109;-88
2021/03/18 06:00:57;;;;;;;9.07;4.13;;;3.20;72.60;;;;;;5001533;28;20025;-88
2021/03/18 06:03:23;;;;;;;9.68;3.75;;;3.20;72.60;;;;;;5006275;28;20030;-88
2021/03/18 06:05:50;;;;;;;7.50;4.22;;;3.20;72.40;;;;;;4996265;28;20114;-88
2021/03/18 06:08:16;;;;;;;6.78;3.83;;;3.20;72.30;;;;;;5004286;28;20084;-89
2021/03/18 06:10:41;;;;;;;9.32;4.72;;;3.20;72.10;;;;;;5003182;28;20035;-89
2021/03/18 06:13:07;;;;;;;8.63;4.53;;;3.20;72.20;;;;;;5009481;28;20353;-89
2021/03/18 06:15:32;;;;;;;9.23;4.35;;;3.20;72.00;;;;;;4999576;28;20030;-89
2021/03/18 06:17:58;;;;;;;11.70;4.72;;;3.10;71.90;;;;;;5008352;28;20041;-88
2021/03/18 06:20:29;;;;;;;8.02;4.47;;;3.10;72.10;;;;;;5006388;28;20034;-89
2021/03/18 06:22:56;;;;;;;10.07;5.10;;;3.10;72.40;;;;;;4999188;28;20029;-88
2021/03/18 06:25:31;;;;;;;11.98;5.28;;;3.10;72.30;;;;;;5009631;28;20174;-88
2021/03/18 06:28:19;;;;;;;13.02;5.10;;;3.10;72.10;;;;;;5008508;28;20472;-88
2021/03/18 06:30:56;;;;;;;10.32;4.68;;;3.20;72.00;;;;;;5001187;28;20033;-88
2021/03/18 06:33:34;;;;;;;10.43;5.00;;;3.10;71.90;;;;;;5012374;28;20068;-89
2021/03/18 06:36:00;;;;;;;8.55;4.78;;;3.00;72.00;;;;;;5011516;28;20107;-88
2021/03/18 06:38:32;;;;;;;12.73;5.85;;;3.00;72.30;;;;;;4992609;28;20147;-87
2021/03/18 06:40:59;;;;;;;;;;;3.00;72.50;;;;;;4993209;28;20019;-88
2021/03/18 06:43:40;;;;;;;7.38;4.57;;;3.00;72.40;;;;;;5011251;28;19950;-88
2021/03/18 06:46:17;;;;;;;7.70;4.75;;;3.00;72.60;;;;;;5011581;28;20053;-89
2021/03/18 06:48:43;;;;;;;10.68;5.22;;;3.10;72.70;;;;;;5011879;28;20100;-89
2021/03/18 06:51:17;;;;;;;12.02;5.57;;;3.20;72.50;;;;;;5011767;28;20045;-88
2021/03/18 06:53:43;;;;;;;9.95;5.40;;;3.30;72.50;;;;;;5010441;28;20041;-88
2021/03/18 06:56:21;;;;;;;9.65;5.20;;;3.30;72.10;;;;;;5003969;28;20017;-89
2021/03/18 06:58:46;;;;;;;10.60;5.13;;;3.30;72.30;;;;;;5001902;28;20081;-88
2021/03/18 07:01:12;;;;;;;9.65;5.40;;;3.30;72.20;;;;;;4992367;28;20026;-89
2021/03/18 07:03:39;;;;;;;7.80;4.88;;;3.30;72.40;;;;;;5005970;28;20033;-89
2021/03/18 07:06:09;;;;;;;8.93;4.80;;;3.30;72.40;;;;;;5006813;28;20034;-89
2021/03/18 07:08:40;;;;;;;6.72;4.78;;;3.40;72.60;;;;;;5002079;28;20040;-89
2021/03/18 07:11:42;;;;;;;8.77;5.03;;;3.40;72.40;;;;;;5005931;28;20022;-89
2021/03/18 07:14:10;;;;;;;13.43;4.78;;;3.50;72.20;;;;;;4994815;28;20043;-89
2021/03/18 07:16:47;;;;;;;11.57;5.10;;;3.50;72.10;;;;;;5003736;28;20034;-89
2021/03/18 07:19:25;;;;;;;9.05;5.05;;;3.60;72.20;;;;;;5011593;28;20163;-89
2021/03/18 07:21:51;;;;;;;12.23;4.72;;;3.80;72.30;;;;;;5012730;28;20061;-89
2021/03/18 07:24:30;;;;;;;10.43;4.90;;;3.90;72.00;;;;;;5011192;28;20033;-89
2021/03/18 07:26:57;;;;;;;11.48;4.43;;;4.10;71.70;;;;;;5000898;28;20149;-89
2021/03/18 07:29:29;;;;;;;8.30;3.70;;;4.20;71.50;;;;;;5010132;28;20511;-89
2021/03/18 07:31:55;;;;;;;7.18;3.35;;;4.30;71.40;;;;;;5000116;28;20041;-88
2021/03/18 07:34:21;;;;;;;7.75;3.42;;;4.40;71.30;;;;;;4992698;28;20018;-90
2021/03/18 07:36:47;;;;;;;12.32;3.67;;;4.40;71.10;;;;;;4995131;28;20169;-89
2021/03/18 07:39:14;;;;;;;7.03;3.75;;;4.50;70.90;;;;;;4997748;28;20112;-89
2021/03/18 07:41:44;;;;;;;10.05;3.88;;;4.60;71.00;;;;;;5002362;28;20037;-89
2021/03/18 07:44:12;;;;;;;11.90;3.80;;;4.60;70.80;;;;;;5000463;28;20036;-89
2021/03/18 07:46:38;;;;;;;7.18;3.60;;;4.60;70.80;;;;;;5014527;28;20026;-90
2021/03/18 07:49:17;;;;;;;4.82;3.47;;;4.60;70.70;;;;;;5010697;28;20057;-89
2021/03/18 07:51:46;;;;;;;6.68;3.40;;;4.70;70.70;;;;;;4995584;28;20030;-89
2021/03/18 07:54:14;;;;;;;11.43;3.42;;;4.70;70.50;;;;;;4994374;28;20361;-90
2021/03/18 07:56:50;;;;;;;6.18;3.78;;;4.70;70.40;;;;;;4999637;28;20117;-90
2021/03/18 07:59:19;;;;;;;4.72;3.45;;;4.60;70.50;;;;;;4995939;28;20383;-90
2021/03/18 08:01:47;;;;;;;10.45;3.30;;;4.70;70.50;;;;;;4995520;28;20026;-90
2021/03/18 08:04:14;;;;;;;6.30;3.50;;;4.90;70.10;;;;;;5003998;28;20022;-90
2021/03/18 08:06:39;;;;;;;7.00;4.00;;;4.90;70.10;;;;;;4997737;28;20038;-91
2021/03/18 08:09:25;;;;;;;8.93;3.95;;;4.90;70.00;;;;;;5009170;28;20027;-91
2021/03/18 08:11:52;;;;;;;9.13;3.58;;;5.00;69.70;;;;;;4982827;28;20096;-91
2021/03/18 08:14:22;;;;;;;10.30;3.70;;;5.00;70.30;;;;;;5008294;28;20376;-91
2021/03/18 08:16:49;;;;;;;6.28;3.63;;;5.10;69.60;;;;;;4998865;28;20038;-91
2021/03/18 08:19:18;;;;;;;6.78;3.58;;;5.70;69.10;;;;;;4996339;28;20034;-92
2021/03/18 08:21:46;;;;;;;8.23;4.18;;;6.60;67.90;;;;;;4998221;28;20034;-92
2021/03/18 08:24:14;;;;;;;5.35;3.70;;;7.50;65.20;;;;;;5013256;28;20495;-91
2021/03/18 08:26:55;;;;;;;6.65;4.15;;;8.30;63.60;;;;;;5014895;28;20033;-92
2021/03/18 08:29:37;;;;;;;8.32;4.05;;;9.00;62.00;;;;;;5016180;28;20118;-92
2021/03/18 08:32:05;;;;;;;9.63;4.30;;;9.30;59.70;;;;;;5015218;28;20030;-92
2021/03/18 08:34:44;;;;;;;6.95;4.03;;;9.60;60.10;;;;;;5016080;28;20065;-92
2021/03/18 08:37:11;;;;;;;6.40;3.80;;;10.00;60.60;;;;;;5016032;28;20029;-92
2021/03/18 08:39:48;;;;;;;5.53;3.80;;;10.20;60.20;;;;;;5015407;28;20658;-92
2021/03/18 08:42:30;;;;;;;5.82;3.78;;;10.40;59.90;;;;;;5015498;28;20225;-92
2021/03/18 08:44:57;;;;;;;66.68;33.63;;;10.60;60.40;;;;;;5003795;28;20787;-92
2021/03/18 08:47:37;;;;;;;12.85;5.95;;;10.80;60.50;;;;;;5002037;28;20085;-92
2021/03/18 08:50:05;;;;;;;6.78;3.33;;;11.00;60.00;;;;;;5003716;28;20022;-92
2021/03/18 08:52:49;;;;;;;9.15;4.07;;;11.10;59.60;;;;;;4995822;28;20023;-92
2021/03/18 08:55:38;;;;;;;11.55;3.50;;;11.20;60.40;;;;;;4996069;28;20034;-92
2021/03/18 08:58:05;;;;;;;7.50;3.28;;;11.20;58.60;;;;;;4998252;28;20022;-92
2021/03/18 09:00:32;;;;;;;6.20;4.10;;;11.10;58.30;;;;;;5014994;28;20022;-92
2021/03/18 09:02:58;;;;;;;14.23;4.47;;;11.10;58.10;;;;;;5014445;28;20033;-90
2021/03/18 09:05:24;;;;;;;9.07;4.20;;;11.00;56.90;;;;;;5016825;28;20018;-90
2021/03/18 09:07:58;;;;;;;9.32;4.60;;;10.80;56.30;;;;;;5016007;28;20041;-90
2021/03/18 09:10:26;;;;;;;9.38;4.80;;;10.60;55.00;;;;;;5008820;28;20083;-89
2021/03/18 09:12:56;;;;;;;11.73;4.30;;;10.30;54.70;;;;;;4996856;28;20061;-89
2021/03/18 09:15:32;;;;;;;8.60;3.95;;;10.20;54.80;;;;;;5007878;28;20026;-90
2021/03/18 09:18:00;;;;;;;7.43;4.15;;;10.30;56.30;;;;;;4994209;28;20027;-90
2021/03/18 09:20:32;;;;;;;7.65;3.92;;;10.30;57.20;;;;;;4994054;28;20055;-90
2021/03/18 09:23:12;;;;;;;;;;;10.30;57.70;;;;;;4994587;28;20401;-89
2021/03/18 09:25:38;;;;;;;12.60;4.47;;;10.60;59.00;;;;;;4994133;28;19916;-90
2021/03/18 09:28:04;;;;;;;9.05;4.20;;;11.10;57.90;;;;;;4995403;28;20556;-90
2021/03/18 09:30:33;;;;;;;8.65;4.35;;;11.60;57.40;;;;;;5012912;28;20117;-90
2021/03/18 09:32:59;;;;;;;5.15;3.90;;;11.80;56.60;;;;;;5011925;28;20021;-89
2021/03/18 09:35:26;;;;;;;8.13;4.05;;;11.50;55.80;;;;;;4993477;28;20373;-89
2021/03/18 09:37:53;;;;;;;7.32;3.85;;;11.30;55.50;;;;;;4998464;28;20026;-90
2021/03/18 09:40:31;;;;;;;8.02;4.50;;;11.00;57.20;;;;;;5013021;28;20392;-89
2021/03/18 09:42:56;;;;;;;8.10;4.32;;;10.60;56.90;;;;;;5012246;28;20388;-89
2021/03/18 09:45:22;;;;;;;7.40;3.95;;;10.40;57.90;;;;;;5012325;28;20018;-90
2021/03/18 09:47:51;;;;;;;9.70;4.20;;;10.30;58.40;;;;;;5011922;28;20037;-89
2021/03/18 09:50:21;;;;;;;7.03;3.88;;;10.50;58.20;;;;;;4999652;28;20031;-90
2021/03/18 09:52:46;;;;;;;8.75;4.30;;;10.30;57.30;;;;;;5010105;28;20034;-89
2021/03/18 09:55:14;;;;;;;7.97;4.00;;;10.00;57.40;;;;;;4992758;28;20050;-89
2021/03/18 09:57:40;;;;;;;5.90;3.72;;;9.80;58.00;;;;;;4994471;28;20026;-89
2021/03/18 10:00:08;;;;;;;9.23;3.78;;;10.00;58.50;;;;;;5008282;28;20030;-91
2021/03/18 10:02:33;;;;;;;7.53;4.40;;;10.10;58.40;;;;;;5014806;28;20022;-91
2021/03/18 10:04:59;;;;;;;7.93;3.75;;;10.10;57.50;;;;;;5013962;28;20507;-90
2021/03/18 10:07:30;;;;;;;7.40;3.72;;;9.90;57.90;;;;;;5011799;28;20029;-90
2021/03/18 10:09:56;;;;;;;5.32;3.80;;;9.70;57.20;;;;;;5013447;28;20029;-90
2021/03/18 10:12:25;;;;;;;10.27;4.90;;;9.40;58.00;;;;;;5011762;28;20392;-89
2021/03/18 10:15:04;;;;;;;8.85;4.80;;;9.20;59.30;;;;;;5009337;28;20392;-89
2021/03/18 10:17:41;;;;;;;7.00;3.90;;;9.10;59.70;;;;;;5010553;28;20038;-89
2021/03/18 10:20:19;;;;;;;6.50;3.90;;;9.00;59.90;;;;;;5010249;28;20492;-89
2021/03/18 10:23:06;;;;;;;7.47;3.80;;;8.90;59.70;;;;;;5010735;28;20504;-90
2021/03/18 10:25:34;;;;;;;8.60;4.30;;;8.70;59.30;;;;;;5009995;28;20110;-90
2021/03/18 10:28:08;;;;;;;10.18;3.70;;;8.40;58.60;;;;;;4992158;28;20042;-89
2021/03/18 10:30:37;;;;;;;7.72;3.83;;;8.10;58.50;;;;;;4994149;28;20026;-88
2021/03/18 10:33:13;;;;;;;5.13;3.50;;;7.90;59.40;;;;;;5011498;28;20036;-91
2021/03/18 10:35:45;;;;;;;4.25;3.45;;;8.10;59.70;;;;;;5008500;28;20030;-92
2021/03/18 10:38:15;;;;;;;3.87;3.00;;;8.30;59.70;;;;;;4996662;28;20435;-91
2021/03/18 10:40:44;;;;;;;7.13;3.70;;;8.50;59.90;;;;;;5008520;28;20054;-92
2021/03/18 10:43:22;;;;;;;6.57;3.90;;;8.70;59.40;;;;;;4996530;28;20080;-92
2021/03/18 10:45:48;;;;;;;7.32;3.22;;;8.70;59.20;;;;;;5007116;28;20456;-91
2021/03/18 10:48:19;;;;;;;5.35;3.33;;;8.60;59.10;;;;;;5002814;28;20049;-90
2021/03/18 10:50:45;;;;;;;6.95;3.83;;;8.60;59.30;;;;;;5005839;28;20128;-91
2021/03/18 10:53:11;;;;;;;4.28;3.00;;;8.60;59.50;;;;;;5004966;28;20511;-91
2021/03/18 10:55:50;;;;;;;5.93;2.95;;;8.50;59.30;;;;;;5007777;28;20037;-92
2021/03/18 10:58:19;;;;;;;6.22;3.25;;;8.50;59.20;;;;;;4997858;28;20022;-91
2021/03/18 11:00:45;;;;;;;4.85;3.08;;;8.40;59.20;;;;;;5007843;28;20040;-91
2021/03/18 11:03:16;;;;;;;5.18;3.30;;;8.40;59.50;;;;;;4996529;28;20029;-91
2021/03/18 11:05:48;;;;;;;7.57;3.53;;;8.50;59.50;;;;;;4991512;28;20034;-91
2021/03/18 11:08:15;;;;;;;8.07;3.45;;;8.50;58.50;;;;;;5010614;28;20038;-91
2021/03/18 11:10:43;;;;;;;5.97;3.30;;;8.50;57.70;;;;;;5008687;28;20049;-91
2021/03/18 11:13:13;;;;;;;6.13;3.20;;;8.50;57.30;;;;;;4999439;28;20030;-91
2021/03/18 11:15:50;;;;;;;5.70;3.00;;;8.30;57.50;;;;;;5000205;28;20030;-91
2021/03/18 11:18:16;;;;;;;3.38;2.38;;;8.30;57.30;;;;;;5002941;28;20077;-90
2021/03/18 11:20:45;;;;;;;2.67;2.30;;;8.20;57.60;;;;;;4997497;28;20025;-91
2021/03/18 11:23:12;;;;;;;3.13;2.80;;;8.20;57.90;;;;;;5009079;28;20063;-91
2021/03/18 11:25:42;;;;;;;3.75;3.03;;;8.20;58.30;;;;;;5010621;28;20435;-90
2021/03/18 11:28:14;;;;;;;6.03;3.40;;;8.30;58.40;;;;;;4991749;28;20105;-91
2021/03/18 11:30:42;;;;;;;6.82;2.67;;;8.40;58.40;;;;;;5008103;28;20029;-91
2021/03/18 11:33:11;;;;;;;6.00;3.70;;;8.50;58.20;;;;;;5006613;28;20129;-90
2021/03/18 11:35:38;;;;;;;4.70;3.13;;;8.60;58.00;;;;;;5010379;28;20022;-90
2021/03/18 11:38:04;;;;;;;7.30;3.72;;;8.60;58.20;;;;;;5005103;28;20480;-89
2021/03/18 11:40:29;;;;;;;5.50;3.53;;;8.70;58.20;;;;;;5002071;28;20030;-91
2021/03/18 11:42:55;;;;;;;5.60;3.08;;;8.70;58.20;;;;;;5003556;28;20037;-90
2021/03/18 11:45:21;;;;;;;3.80;3.40;;;8.70;58.20;;;;;;5004369;28;20112;-91
2021/03/18 11:47:47;;;;;;;5.32;2.70;;;8.70;58.40;;;;;;5012231;28;20089;-90
2021/03/18 11:50:13;;;;;;;5.68;2.95;;;8.70;58.40;;;;;;5008991;28;20045;-89
2021/03/18 11:52:38;;;;;;;2.80;2.60;;;8.60;57.50;;;;;;5003974;28;20049;-89
2021/03/18 11:55:05;;;;;;;2.15;1.95;;;8.50;57.80;;;;;;4994953;28;20342;-89
2021/03/18 11:57:30;;;;;;;3.28;2.03;;;8.40;58.00;;;;;;5011194;28;20081;-90
2021/03/18 11:59:57;;;;;;;2.55;1.98;;;8.40;57.90;;;;;;5045911;23;20029;-86
2021/03/18 12:02:23;;;;;;;3.10;1.90;;;8.30;58.00;;;;;;5024160;28;20029;-87
2021/03/18 12:04:48;;;;;;;2.03;1.58;;;8.30;57.40;;;;;;5022438;28;20087;-86
2021/03/18 12:07:14;;;;;;;1.92;1.45;;;8.20;57.50;;;;;;5036565;28;20036;-86
2021/03/18 12:09:39;;;;;;;8.38;6.32;;;8.20;57.50;;;;;;5027929;28;20039;-86
2021/03/18 12:12:05;;;;;;;3.28;2.05;;;8.30;57.50;;;;;;5035794;28;20037;-86
2021/03/18 12:14:31;;;;;;;2.88;1.70;;;8.40;56.30;;;;;;5023277;28;20526;-86
2021/03/18 12:16:57;;;;;;;4.60;3.30;;;8.60;56.70;;;;;;5038140;28;20037;-86
2021/03/18 12:19:27;;;;;;;3.53;3.22;;;8.80;57.30;;;;;;5023888;28;20184;-86
2021/03/18 12:21:53;;;;;;;6.10;3.50;;;9.00;58.00;;;;;;5037336;28;20033;-86
2021/03/18 12:24:19;;;;;;;5.07;3.90;;;9.30;58.20;;;;;;5027424;28;20407;-86
2021/03/18 12:26:44;;;;;;;4.75;3.38;;;9.40;58.20;;;;;;5026648;28;20035;-86
2021/03/18 12:29:10;;;;;;;5.63;3.53;;;9.50;58.00;;;;;;5059101;28;20399;-86
2021/03/18 12:31:35;;;;;;;5.95;3.70;;;9.40;57.60;;;;;;5039951;28;20033;-86
2021/03/18 12:34:01;;;;;;;5.53;3.88;;;9.20;57.70;;;;;;5041863;28;20053;-86
2021/03/18 12:36:27;;;;;;;5.78;3.80;;;9.00;57.80;;;;;;5051148;28;20013;-85
2021/03/18 12:38:52;;;;;;;7.07;4.28;;;8.80;58.40;;;;;;5046175;28;20050;-86
2021/03/18 12:44:52;;;;;;;5.78;4.10;;;8.80;59.40;;;;;;5050468;28;20067;-86
2021/03/18 12:47:42;;;;;;;7.55;4.40;;;8.90;59.80;;;;;;5051593;28;20056;-86
2021/03/18 12:50:11;;;;;;;7.57;4.82;;;8.90;59.90;;;;;;5043413;28;20391;-85
2021/03/18 12:52:41;;;;;;;7.05;4.63;;;8.80;60.20;;;;;;5027072;28;20026;-87
2021/03/18 12:55:16;;;;;;;9.55;5.50;;;8.70;60.70;;;;;;5024421;28;20029;-86
2021/03/18 12:57:42;;;;;;;8.93;5.07;;;8.60;61.00;;;;;;5033690;28;20108;-87
2021/03/18 13:00:10;;;;;;;10.15;6.03;;;8.40;61.20;;;;;;5039595;28;20063;-87
2021/03/18 13:02:36;;;;;;;8.98;5.03;;;8.20;61.50;;;;;;5045614;28;20030;-86
2021/03/18 13:05:03;;;;;;;7.53;4.22;;;8.10;61.90;;;;;;5041256;28;20390;-85
2021/03/18 13:07:29;;;;;;;8.60;4.07;;;8.00;62.20;;;;;;5036645;28;20151;-86
2021/03/18 13:09:54;;;;;;;4.55;3.92;;;8.00;62.20;;;;;;5037451;28;20029;-86